sensor_id;sensor_type;location;lat;lon;timestamp;temperature;humidity
262;DHT22;114;48.260;10.988;2023-04-03T00:01:31;2.60;22.40
262;DHT22;114;48.260;10.988;2023-04-03T00:03:57;2.60;23.40
262;DHT22;114;48.260;10.988;2023-04-03T00:06:23;2.60;23.40
262;DHT22;114;48.260;10.988;2023-04-03T00:08:52;2.60;23.80
262;DHT22;114;48.260;10.988;2023-04-03T00:11:18;2.60;23.30
262;DHT22;114;48.260;10.988;2023-04-03T00:13:45;2.60;23.40
262;DHT22;114;48.260;10.988;2023-04-03T00:16:11;2.60;23.40
262;DHT22;114;48.260;10.988;2023-04-03T00:18:38;2.60;24.30
262;DHT22;114;48.260;10.988;2023-04-03T00:21:05;2.50;22.90
262;DHT22;114;48.260;10.988;2023-04-03T00:23:31;2.50;22.40
262;DHT22;114;48.260;10.988;2023-04-03T00:25:56;2.50;24.50
262;DHT22;114;48.260;10.988;2023-04-03T00:28:22;2.50;25.70
262;DHT22;114;48.260;10.988;2023-04-03T00:30:49;2.60;25.40
262;DHT22;114;48.260;10.988;2023-04-03T00:33:16;2.50;25.00
262;DHT22;114;48.260;10.988;2023-04-03T00:35:42;2.50;24.90
262;DHT22;114;48.260;10.988;2023-04-03T00:38:08;2.40;23.10
262;DHT22;114;48.260;10.988;2023-04-03T00:40:38;2.40;24.10
262;DHT22;114;48.260;10.988;2023-04-03T00:43:12;2.40;25.20
262;DHT22;114;48.260;10.988;2023-04-03T00:45:42;2.40;24.60
262;DHT22;114;48.260;10.988;2023-04-03T00:48:13;2.40;25.70
262;DHT22;114;48.260;10.988;2023-04-03T00:50:42;2.40;26.80
262;DHT22;114;48.260;10.988;2023-04-03T00:53:12;2.40;26.30
262;DHT22;114;48.260;10.988;2023-04-03T00:55:38;2.40;26.30
262;DHT22;114;48.260;10.988;2023-04-03T00:58:05;2.40;23.30
262;DHT22;114;48.260;10.988;2023-04-03T01:00:32;2.50;23.20
262;DHT22;114;48.260;10.988;2023-04-03T01:02:58;2.40;19.60
262;DHT22;114;48.260;10.988;2023-04-03T01:05:26;2.40;20.20
262;DHT22;114;48.260;10.988;2023-04-03T01:07:53;2.40;21.40
262;DHT22;114;48.260;10.988;2023-04-03T01:10:19;2.40;21.10
262;DHT22;114;48.260;10.988;2023-04-03T01:12:49;2.40;22.10
262;DHT22;114;48.260;10.988;2023-04-03T01:15:19;2.40;23.90
262;DHT22;114;48.260;10.988;2023-04-03T01:17:48;2.40;25.30
262;DHT22;114;48.260;10.988;2023-04-03T01:26:01;2.50;25.40
262;DHT22;114;48.260;10.988;2023-04-03T01:28:33;2.50;25.60
262;DHT22;114;48.260;10.988;2023-04-03T01:33:32;2.40;24.70
262;DHT22;114;48.260;10.988;2023-04-03T01:35:58;2.30;24.70
262;DHT22;114;48.260;10.988;2023-04-03T01:38:24;2.30;25.30
262;DHT22;114;48.260;10.988;2023-04-03T01:40:49;2.40;25.70
262;DHT22;114;48.260;10.988;2023-04-03T01:43:15;2.40;25.80
262;DHT22;114;48.260;10.988;2023-04-03T01:45:41;2.40;24.60
262;DHT22;114;48.260;10.988;2023-04-03T01:48:09;2.40;24.90
262;DHT22;114;48.260;10.988;2023-04-03T01:50:35;2.40;24.10
262;DHT22;114;48.260;10.988;2023-04-03T01:53:01;2.30;23.20
262;DHT22;114;48.260;10.988;2023-04-03T01:55:27;2.30;23.90
262;DHT22;114;48.260;10.988;2023-04-03T01:57:52;2.30;23.70
262;DHT22;114;48.260;10.988;2023-04-03T02:00:18;2.30;25.10
262;DHT22;114;48.260;10.988;2023-04-03T02:02:44;2.30;23.20
262;DHT22;114;48.260;10.988;2023-04-03T02:05:11;2.30;24.10
262;DHT22;114;48.260;10.988;2023-04-03T02:07:38;2.30;24.60
262;DHT22;114;48.260;10.988;2023-04-03T02:10:04;2.40;25.00
262;DHT22;114;48.260;10.988;2023-04-03T02:12:30;2.40;24.30
262;DHT22;114;48.260;10.988;2023-04-03T02:14:55;2.30;23.20
262;DHT22;114;48.260;10.988;2023-04-03T02:17:21;2.30;22.30
262;DHT22;114;48.260;10.988;2023-04-03T02:19:48;2.20;23.20
262;DHT22;114;48.260;10.988;2023-04-03T02:22:14;2.20;23.20
262;DHT22;114;48.260;10.988;2023-04-03T02:24:39;2.20;23.20
262;DHT22;114;48.260;10.988;2023-04-03T02:27:06;2.20;23.20
262;DHT22;114;48.260;10.988;2023-04-03T02:29:31;2.20;22.30
262;DHT22;114;48.260;10.988;2023-04-03T02:31:57;2.30;22.20
262;DHT22;114;48.260;10.988;2023-04-03T02:34:24;2.30;22.50
262;DHT22;114;48.260;10.988;2023-04-03T02:36:50;2.30;22.70
262;DHT22;114;48.260;10.988;2023-04-03T02:39:16;2.30;22.80
262;DHT22;114;48.260;10.988;2023-04-03T02:41:42;2.20;23.20
262;DHT22;114;48.260;10.988;2023-04-03T02:44:10;2.20;24.50
262;DHT22;114;48.260;10.988;2023-04-03T02:46:35;2.30;25.70
262;DHT22;114;48.260;10.988;2023-04-03T02:49:02;2.30;25.30
262;DHT22;114;48.260;10.988;2023-04-03T02:51:28;2.20;24.90
262;DHT22;114;48.260;10.988;2023-04-03T02:53:53;2.30;25.60
262;DHT22;114;48.260;10.988;2023-04-03T02:56:19;2.20;25.50
262;DHT22;114;48.260;10.988;2023-04-03T02:58:45;2.20;24.60
262;DHT22;114;48.260;10.988;2023-04-03T03:01:11;2.20;24.60
262;DHT22;114;48.260;10.988;2023-04-03T03:03:37;2.30;24.80
262;DHT22;114;48.260;10.988;2023-04-03T03:06:14;2.30;25.00
262;DHT22;114;48.260;10.988;2023-04-03T03:08:40;2.20;25.20
262;DHT22;114;48.260;10.988;2023-04-03T03:11:07;2.20;25.20
262;DHT22;114;48.260;10.988;2023-04-03T03:13:33;2.20;25.00
262;DHT22;114;48.260;10.988;2023-04-03T03:16:00;2.20;25.60
262;DHT22;114;48.260;10.988;2023-04-03T03:18:26;2.20;25.80
262;DHT22;114;48.260;10.988;2023-04-03T03:20:53;2.20;25.30
262;DHT22;114;48.260;10.988;2023-04-03T03:23:19;2.10;25.60
262;DHT22;114;48.260;10.988;2023-04-03T03:25:45;2.10;25.00
262;DHT22;114;48.260;10.988;2023-04-03T03:28:11;2.10;25.60
262;DHT22;114;48.260;10.988;2023-04-03T03:30:37;2.10;26.90
262;DHT22;114;48.260;10.988;2023-04-03T03:33:03;2.10;26.10
262;DHT22;114;48.260;10.988;2023-04-03T03:35:29;2.20;26.70
262;DHT22;114;48.260;10.988;2023-04-03T03:37:55;2.20;27.00
262;DHT22;114;48.260;10.988;2023-04-03T03:40:21;2.20;28.50
262;DHT22;114;48.260;10.988;2023-04-03T03:42:46;2.20;27.00
262;DHT22;114;48.260;10.988;2023-04-03T03:45:12;2.10;26.10
262;DHT22;114;48.260;10.988;2023-04-03T03:47:38;2.10;27.00
262;DHT22;114;48.260;10.988;2023-04-03T03:50:04;2.10;27.20
262;DHT22;114;48.260;10.988;2023-04-03T03:52:30;2.00;27.80
262;DHT22;114;48.260;10.988;2023-04-03T03:54:56;2.10;28.50
262;DHT22;114;48.260;10.988;2023-04-03T03:57:22;2.10;28.60
262;DHT22;114;48.260;10.988;2023-04-03T03:59:48;2.10;29.10
262;DHT22;114;48.260;10.988;2023-04-03T04:02:15;2.10;28.80
262;DHT22;114;48.260;10.988;2023-04-03T04:04:41;2.00;29.40
262;DHT22;114;48.260;10.988;2023-04-03T04:07:07;2.00;29.90
262;DHT22;114;48.260;10.988;2023-04-03T04:09:33;2.10;30.60
262;DHT22;114;48.260;10.988;2023-04-03T04:11:58;2.10;29.80
262;DHT22;114;48.260;10.988;2023-04-03T04:14:24;2.00;30.10
262;DHT22;114;48.260;10.988;2023-04-03T04:16:50;2.00;30.70
262;DHT22;114;48.260;10.988;2023-04-03T04:19:16;2.10;32.60
262;DHT22;114;48.260;10.988;2023-04-03T04:21:41;2.10;31.50
262;DHT22;114;48.260;10.988;2023-04-03T04:24:08;2.10;31.80
262;DHT22;114;48.260;10.988;2023-04-03T04:26:34;2.10;30.40
262;DHT22;114;48.260;10.988;2023-04-03T04:29:00;2.10;31.80
262;DHT22;114;48.260;10.988;2023-04-03T04:31:26;2.10;30.90
262;DHT22;114;48.260;10.988;2023-04-03T04:33:52;2.10;30.80
262;DHT22;114;48.260;10.988;2023-04-03T04:36:18;2.10;30.90
262;DHT22;114;48.260;10.988;2023-04-03T04:38:44;2.10;31.90
262;DHT22;114;48.260;10.988;2023-04-03T04:41:10;2.10;31.10
262;DHT22;114;48.260;10.988;2023-04-03T04:43:36;2.10;32.40
262;DHT22;114;48.260;10.988;2023-04-03T04:46:06;2.10;31.90
262;DHT22;114;48.260;10.988;2023-04-03T04:48:33;2.10;31.50
262;DHT22;114;48.260;10.988;2023-04-03T04:50:59;2.10;30.80
262;DHT22;114;48.260;10.988;2023-04-03T04:53:25;2.10;30.90
262;DHT22;114;48.260;10.988;2023-04-03T04:55:52;2.10;31.70
262;DHT22;114;48.260;10.988;2023-04-03T04:58:18;2.10;31.80
262;DHT22;114;48.260;10.988;2023-04-03T05:00:44;2.10;31.60
262;DHT22;114;48.260;10.988;2023-04-03T05:03:10;2.10;31.90
262;DHT22;114;48.260;10.988;2023-04-03T05:05:36;2.10;32.00
262;DHT22;114;48.260;10.988;2023-04-03T05:08:02;2.10;33.80
262;DHT22;114;48.260;10.988;2023-04-03T05:10:29;2.10;33.50
262;DHT22;114;48.260;10.988;2023-04-03T05:12:54;2.10;33.30
262;DHT22;114;48.260;10.988;2023-04-03T05:15:20;2.20;33.80
262;DHT22;114;48.260;10.988;2023-04-03T05:17:46;2.20;33.80
262;DHT22;114;48.260;10.988;2023-04-03T05:20:12;2.20;34.70
262;DHT22;114;48.260;10.988;2023-04-03T05:22:38;2.20;32.40
262;DHT22;114;48.260;10.988;2023-04-03T05:25:04;2.20;31.30
262;DHT22;114;48.260;10.988;2023-04-03T05:27:30;2.20;31.20
262;DHT22;114;48.260;10.988;2023-04-03T05:29:56;2.10;30.90
262;DHT22;114;48.260;10.988;2023-04-03T05:32:23;2.10;30.80
262;DHT22;114;48.260;10.988;2023-04-03T05:34:49;2.10;31.60
262;DHT22;114;48.260;10.988;2023-04-03T05:37:14;2.10;33.10
262;DHT22;114;48.260;10.988;2023-04-03T05:39:40;2.10;31.40
262;DHT22;114;48.260;10.988;2023-04-03T05:42:07;2.20;31.00
262;DHT22;114;48.260;10.988;2023-04-03T05:44:33;2.10;29.40
262;DHT22;114;48.260;10.988;2023-04-03T05:46:59;2.10;29.90
262;DHT22;114;48.260;10.988;2023-04-03T05:49:25;2.10;30.00
262;DHT22;114;48.260;10.988;2023-04-03T05:51:51;2.20;29.90
262;DHT22;114;48.260;10.988;2023-04-03T05:54:28;2.20;29.20
262;DHT22;114;48.260;10.988;2023-04-03T05:56:58;2.30;29.00
262;DHT22;114;48.260;10.988;2023-04-03T05:59:24;2.30;29.60
262;DHT22;114;48.260;10.988;2023-04-03T06:01:49;2.50;27.70
262;DHT22;114;48.260;10.988;2023-04-03T06:04:15;2.30;28.20
262;DHT22;114;48.260;10.988;2023-04-03T06:06:51;2.30;28.40
262;DHT22;114;48.260;10.988;2023-04-03T06:09:19;2.40;28.80
262;DHT22;114;48.260;10.988;2023-04-03T06:11:45;2.40;28.00
262;DHT22;114;48.260;10.988;2023-04-03T06:14:11;2.40;28.60
262;DHT22;114;48.260;10.988;2023-04-03T06:16:37;2.50;28.90
262;DHT22;114;48.260;10.988;2023-04-03T06:19:05;2.50;29.00
262;DHT22;114;48.260;10.988;2023-04-03T06:21:31;2.60;28.90
262;DHT22;114;48.260;10.988;2023-04-03T06:23:58;2.60;28.00
262;DHT22;114;48.260;10.988;2023-04-03T06:26:24;2.70;27.10
262;DHT22;114;48.260;10.988;2023-04-03T06:28:50;2.70;25.40
262;DHT22;114;48.260;10.988;2023-04-03T06:31:16;2.70;23.90
262;DHT22;114;48.260;10.988;2023-04-03T06:33:42;2.70;24.00
262;DHT22;114;48.260;10.988;2023-04-03T06:36:10;2.70;23.90
262;DHT22;114;48.260;10.988;2023-04-03T06:38:38;2.70;24.90
262;DHT22;114;48.260;10.988;2023-04-03T06:41:04;2.80;24.60
262;DHT22;114;48.260;10.988;2023-04-03T06:43:30;2.80;23.50
262;DHT22;114;48.260;10.988;2023-04-03T06:45:56;2.90;23.60
262;DHT22;114;48.260;10.988;2023-04-03T06:48:22;3.00;24.20
262;DHT22;114;48.260;10.988;2023-04-03T06:50:48;3.10;21.90
262;DHT22;114;48.260;10.988;2023-04-03T06:53:14;3.10;21.10
262;DHT22;114;48.260;10.988;2023-04-03T06:55:40;3.10;21.80
262;DHT22;114;48.260;10.988;2023-04-03T06:58:07;3.30;22.10
262;DHT22;114;48.260;10.988;2023-04-03T07:00:33;3.30;19.30
262;DHT22;114;48.260;10.988;2023-04-03T07:02:59;3.30;18.10
262;DHT22;114;48.260;10.988;2023-04-03T07:05:25;3.40;19.00
262;DHT22;114;48.260;10.988;2023-04-03T07:07:51;3.50;18.60
262;DHT22;114;48.260;10.988;2023-04-03T07:10:18;3.60;19.80
262;DHT22;114;48.260;10.988;2023-04-03T07:12:44;3.70;17.00
262;DHT22;114;48.260;10.988;2023-04-03T07:15:10;3.70;13.20
262;DHT22;114;48.260;10.988;2023-04-03T07:17:37;3.80;14.60
262;DHT22;114;48.260;10.988;2023-04-03T07:20:03;3.80;13.90
262;DHT22;114;48.260;10.988;2023-04-03T07:22:29;3.60;14.80
262;DHT22;114;48.260;10.988;2023-04-03T07:24:55;3.80;15.30
262;DHT22;114;48.260;10.988;2023-04-03T07:27:21;4.00;13.30
262;DHT22;114;48.260;10.988;2023-04-03T07:29:47;4.00;12.30
262;DHT22;114;48.260;10.988;2023-04-03T07:32:14;3.90;11.10
262;DHT22;114;48.260;10.988;2023-04-03T07:34:40;3.90;12.90
262;DHT22;114;48.260;10.988;2023-04-03T07:37:06;4.10;12.10
262;DHT22;114;48.260;10.988;2023-04-03T07:39:32;4.20;10.30
262;DHT22;114;48.260;10.988;2023-04-03T07:41:58;4.20;10.90
262;DHT22;114;48.260;10.988;2023-04-03T07:44:24;4.10;11.50
262;DHT22;114;48.260;10.988;2023-04-03T07:46:50;4.40;11.60
262;DHT22;114;48.260;10.988;2023-04-03T07:49:16;4.40;8.40
262;DHT22;114;48.260;10.988;2023-04-03T07:51:44;4.50;7.50
262;DHT22;114;48.260;10.988;2023-04-03T07:54:09;4.40;7.10
262;DHT22;114;48.260;10.988;2023-04-03T07:56:35;4.50;8.20
262;DHT22;114;48.260;10.988;2023-04-03T07:59:01;4.40;8.50
262;DHT22;114;48.260;10.988;2023-04-03T08:01:27;4.60;5.70
262;DHT22;114;48.260;10.988;2023-04-03T08:03:53;4.80;4.80
262;DHT22;114;48.260;10.988;2023-04-03T08:06:18;4.60;5.80
262;DHT22;114;48.260;10.988;2023-04-03T08:08:44;4.70;4.80
262;DHT22;114;48.260;10.988;2023-04-03T08:11:11;4.70;5.50
262;DHT22;114;48.260;10.988;2023-04-03T08:13:37;4.70;4.30
262;DHT22;114;48.260;10.988;2023-04-03T08:16:16;4.70;2.80
262;DHT22;114;48.260;10.988;2023-04-03T08:18:42;4.70;2.50
262;DHT22;114;48.260;10.988;2023-04-03T08:21:10;4.60;3.80
262;DHT22;114;48.260;10.988;2023-04-03T08:23:37;4.60;3.80
262;DHT22;114;48.260;10.988;2023-04-03T08:26:11;4.50;5.40
262;DHT22;114;48.260;10.988;2023-04-03T08:28:38;4.70;4.10
262;DHT22;114;48.260;10.988;2023-04-03T08:31:10;4.60;3.40
262;DHT22;114;48.260;10.988;2023-04-03T08:33:38;4.60;3.00
262;DHT22;114;48.260;10.988;2023-04-03T08:36:07;5.00;13.10
262;DHT22;114;48.260;10.988;2023-04-03T08:38:33;5.20;8.80
262;DHT22;114;48.260;10.988;2023-04-03T08:46:17;5.50;1.00
262;DHT22;114;48.260;10.988;2023-04-03T08:48:44;5.40;1.00
262;DHT22;114;48.260;10.988;2023-04-03T08:51:17;5.20;1.00
262;DHT22;114;48.260;10.988;2023-04-03T08:54:06;5.20;1.00
262;DHT22;114;48.260;10.988;2023-04-03T08:56:34;5.30;1.00
262;DHT22;114;48.260;10.988;2023-04-03T08:59:05;5.40;1.00
262;DHT22;114;48.260;10.988;2023-04-03T09:01:38;5.30;1.00
262;DHT22;114;48.260;10.988;2023-04-03T09:04:11;5.40;1.00
262;DHT22;114;48.260;10.988;2023-04-03T09:06:38;5.40;1.00
262;DHT22;114;48.260;10.988;2023-04-03T09:09:33;5.50;1.00
262;DHT22;114;48.260;10.988;2023-04-03T09:14:52;5.60;1.00
262;DHT22;114;48.260;10.988;2023-04-03T09:20:26;5.90;1.00
262;DHT22;114;48.260;10.988;2023-04-03T09:22:55;6.10;1.00
262;DHT22;114;48.260;10.988;2023-04-03T09:25:29;6.20;1.00
262;DHT22;114;48.260;10.988;2023-04-03T09:27:59;6.10;1.00
262;DHT22;114;48.260;10.988;2023-04-03T09:30:26;6.20;1.00
262;DHT22;114;48.260;10.988;2023-04-03T09:32:53;6.30;1.00
262;DHT22;114;48.260;10.988;2023-04-03T09:37:48;6.60;1.00
262;DHT22;114;48.260;10.988;2023-04-03T09:42:57;6.30;1.00
262;DHT22;114;48.260;10.988;2023-04-03T09:45:27;6.50;1.00
262;DHT22;114;48.260;10.988;2023-04-03T09:48:16;6.30;1.00
262;DHT22;114;48.260;10.988;2023-04-03T09:50:58;6.40;1.00
262;DHT22;114;48.260;10.988;2023-04-03T09:53:40;6.20;1.00
262;DHT22;114;48.260;10.988;2023-04-03T09:58:44;5.90;1.00
262;DHT22;114;48.260;10.988;2023-04-03T10:01:37;5.70;1.00
262;DHT22;114;48.260;10.988;2023-04-03T10:06:33;5.40;1.00
262;DHT22;114;48.260;10.988;2023-04-03T10:09:05;5.50;1.00
262;DHT22;114;48.260;10.988;2023-04-03T10:11:32;5.50;1.00
262;DHT22;114;48.260;10.988;2023-04-03T10:14:01;5.40;1.00
262;DHT22;114;48.260;10.988;2023-04-03T10:22:02;5.50;1.00
262;DHT22;114;48.260;10.988;2023-04-03T10:24:47;5.60;1.00
262;DHT22;114;48.260;10.988;2023-04-03T10:27:27;5.70;1.00
262;DHT22;114;48.260;10.988;2023-04-03T10:30:00;5.80;1.00
262;DHT22;114;48.260;10.988;2023-04-03T10:45:52;5.80;1.00
262;DHT22;114;48.260;10.988;2023-04-03T10:48:30;5.70;1.00
262;DHT22;114;48.260;10.988;2023-04-03T10:54:05;5.80;1.00
262;DHT22;114;48.260;10.988;2023-04-03T10:56:43;5.90;1.00
262;DHT22;114;48.260;10.988;2023-04-03T11:02:00;6.00;1.00
262;DHT22;114;48.260;10.988;2023-04-03T11:04:30;6.10;1.00
262;DHT22;114;48.260;10.988;2023-04-03T11:07:04;6.20;1.00
262;DHT22;114;48.260;10.988;2023-04-03T11:09:35;6.10;1.00
262;DHT22;114;48.260;10.988;2023-04-03T11:14:47;6.10;1.00
262;DHT22;114;48.260;10.988;2023-04-03T11:17:26;5.80;1.00
262;DHT22;114;48.260;10.988;2023-04-03T11:22:35;5.70;1.00
262;DHT22;114;48.260;10.988;2023-04-03T11:27:47;5.90;1.00
262;DHT22;114;48.260;10.988;2023-04-03T11:35:56;5.90;1.00
262;DHT22;114;48.260;10.988;2023-04-03T11:38:28;5.80;1.00
262;DHT22;114;48.260;10.988;2023-04-03T11:40:56;5.70;1.00
262;DHT22;114;48.260;10.988;2023-04-03T11:43:30;5.60;1.00
262;DHT22;114;48.260;10.988;2023-04-03T11:45:57;5.40;1.00
262;DHT22;114;48.260;10.988;2023-04-03T11:50:54;5.10;1.00
262;DHT22;114;48.260;10.988;2023-04-03T11:55:54;5.20;1.00
262;DHT22;114;48.260;10.988;2023-04-03T11:58:25;5.20;1.00
262;DHT22;114;48.260;10.988;2023-04-03T12:01:00;5.20;1.00
262;DHT22;114;48.260;10.988;2023-04-03T12:29:41;5.40;1.00
262;DHT22;114;48.260;10.988;2023-04-03T12:32:35;5.60;1.00
262;DHT22;114;48.260;10.988;2023-04-03T12:54:14;4.60;1.00
262;DHT22;114;48.260;10.988;2023-04-03T12:56:40;4.80;1.00
262;DHT22;114;48.260;10.988;2023-04-03T12:59:26;5.00;1.00
262;DHT22;114;48.260;10.988;2023-04-03T13:01:59;5.20;1.00
262;DHT22;114;48.260;10.988;2023-04-03T13:04:27;5.40;1.00
262;DHT22;114;48.260;10.988;2023-04-03T13:06:53;5.60;1.00
262;DHT22;114;48.260;10.988;2023-04-03T13:09:28;6.00;1.00
262;DHT22;114;48.260;10.988;2023-04-03T13:12:11;6.30;1.00
262;DHT22;114;48.260;10.988;2023-04-03T13:14:37;6.40;1.00
262;DHT22;114;48.260;10.988;2023-04-03T13:17:16;6.90;1.00
262;DHT22;114;48.260;10.988;2023-04-03T13:19:43;7.30;1.00
262;DHT22;114;48.260;10.988;2023-04-03T13:22:33;7.80;1.00
262;DHT22;114;48.260;10.988;2023-04-03T13:25:07;8.80;1.00
262;DHT22;114;48.260;10.988;2023-04-03T13:27:34;9.30;1.00
262;DHT22;114;48.260;10.988;2023-04-03T13:30:01;9.70;1.00
262;DHT22;114;48.260;10.988;2023-04-03T13:32:29;9.70;1.00
262;DHT22;114;48.260;10.988;2023-04-03T13:34:55;9.80;1.00
262;DHT22;114;48.260;10.988;2023-04-03T13:37:25;11.60;1.00
262;DHT22;114;48.260;10.988;2023-04-03T13:40:00;14.70;1.00
262;DHT22;114;48.260;10.988;2023-04-03T13:42:30;17.00;1.00
262;DHT22;114;48.260;10.988;2023-04-03T13:47:44;18.50;1.00
262;DHT22;114;48.260;10.988;2023-04-03T13:52:47;12.90;1.00
262;DHT22;114;48.260;10.988;2023-04-03T13:55:25;10.20;1.00
262;DHT22;114;48.260;10.988;2023-04-03T14:03:14;7.50;1.00
262;DHT22;114;48.260;10.988;2023-04-03T14:05:39;7.10;1.00
262;DHT22;114;48.260;10.988;2023-04-03T14:08:05;6.90;1.00
262;DHT22;114;48.260;10.988;2023-04-03T14:10:32;6.70;1.00
262;DHT22;114;48.260;10.988;2023-04-03T14:12:58;6.80;1.00
262;DHT22;114;48.260;10.988;2023-04-03T14:15:27;6.90;1.00
262;DHT22;114;48.260;10.988;2023-04-03T14:17:54;7.30;1.00
262;DHT22;114;48.260;10.988;2023-04-03T14:20:23;7.50;1.00
262;DHT22;114;48.260;10.988;2023-04-03T14:22:49;8.40;1.00
262;DHT22;114;48.260;10.988;2023-04-03T14:25:16;10.00;1.00
262;DHT22;114;48.260;10.988;2023-04-03T14:27:45;10.00;1.00
262;DHT22;114;48.260;10.988;2023-04-03T14:30:21;9.70;1.00
262;DHT22;114;48.260;10.988;2023-04-03T14:32:48;8.80;1.00
262;DHT22;114;48.260;10.988;2023-04-03T14:35:15;8.20;1.00
262;DHT22;114;48.260;10.988;2023-04-03T14:37:41;8.00;1.00
262;DHT22;114;48.260;10.988;2023-04-03T14:40:08;7.60;1.00
262;DHT22;114;48.260;10.988;2023-04-03T14:42:36;7.50;1.00
262;DHT22;114;48.260;10.988;2023-04-03T14:45:05;7.80;1.00
262;DHT22;114;48.260;10.988;2023-04-03T14:47:32;8.40;1.00
262;DHT22;114;48.260;10.988;2023-04-03T14:50:04;10.20;1.00
262;DHT22;114;48.260;10.988;2023-04-03T14:52:33;13.20;1.00
262;DHT22;114;48.260;10.988;2023-04-03T14:55:00;15.00;1.00
262;DHT22;114;48.260;10.988;2023-04-03T14:57:28;15.70;1.00
262;DHT22;114;48.260;10.988;2023-04-03T14:59:54;16.50;1.00
262;DHT22;114;48.260;10.988;2023-04-03T15:02:33;16.60;1.00
262;DHT22;114;48.260;10.988;2023-04-03T15:05:01;16.00;1.00
262;DHT22;114;48.260;10.988;2023-04-03T15:07:31;14.10;1.00
262;DHT22;114;48.260;10.988;2023-04-03T15:10:05;13.60;1.00
262;DHT22;114;48.260;10.988;2023-04-03T15:12:35;12.60;1.00
262;DHT22;114;48.260;10.988;2023-04-03T15:15:01;11.30;1.00
262;DHT22;114;48.260;10.988;2023-04-03T15:17:26;9.60;1.00
262;DHT22;114;48.260;10.988;2023-04-03T15:19:52;8.80;1.00
262;DHT22;114;48.260;10.988;2023-04-03T15:22:19;8.30;1.00
262;DHT22;114;48.260;10.988;2023-04-03T15:24:45;7.80;1.00
262;DHT22;114;48.260;10.988;2023-04-03T15:27:12;7.50;1.00
262;DHT22;114;48.260;10.988;2023-04-03T15:29:39;7.60;1.00
262;DHT22;114;48.260;10.988;2023-04-03T15:32:05;8.70;1.00
262;DHT22;114;48.260;10.988;2023-04-03T15:34:32;9.60;1.00
262;DHT22;114;48.260;10.988;2023-04-03T15:36:57;9.70;1.00
262;DHT22;114;48.260;10.988;2023-04-03T15:39:25;9.10;1.00
262;DHT22;114;48.260;10.988;2023-04-03T15:41:51;8.60;1.00
262;DHT22;114;48.260;10.988;2023-04-03T15:44:18;8.20;1.00
262;DHT22;114;48.260;10.988;2023-04-03T15:46:47;7.90;1.00
262;DHT22;114;48.260;10.988;2023-04-03T15:49:18;7.50;1.00
262;DHT22;114;48.260;10.988;2023-04-03T15:51:46;7.40;1.00
262;DHT22;114;48.260;10.988;2023-04-03T15:54:12;7.20;1.00
262;DHT22;114;48.260;10.988;2023-04-03T15:56:38;7.20;1.00
262;DHT22;114;48.260;10.988;2023-04-03T15:59:03;6.90;1.00
262;DHT22;114;48.260;10.988;2023-04-03T16:01:29;6.80;1.00
262;DHT22;114;48.260;10.988;2023-04-03T16:03:55;6.70;1.00
262;DHT22;114;48.260;10.988;2023-04-03T16:06:21;6.90;1.00
262;DHT22;114;48.260;10.988;2023-04-03T16:08:47;7.00;1.00
262;DHT22;114;48.260;10.988;2023-04-03T16:11:14;7.00;1.00
262;DHT22;114;48.260;10.988;2023-04-03T16:13:40;7.00;1.00
262;DHT22;114;48.260;10.988;2023-04-03T16:16:07;6.80;1.00
262;DHT22;114;48.260;10.988;2023-04-03T16:18:34;6.40;1.00
262;DHT22;114;48.260;10.988;2023-04-03T16:21:01;6.10;1.00
262;DHT22;114;48.260;10.988;2023-04-03T16:23:26;6.10;1.00
262;DHT22;114;48.260;10.988;2023-04-03T16:25:52;6.00;1.00
262;DHT22;114;48.260;10.988;2023-04-03T16:28:18;6.00;1.00
262;DHT22;114;48.260;10.988;2023-04-03T16:30:45;6.00;1.00
262;DHT22;114;48.260;10.988;2023-04-03T16:33:12;6.00;1.00
262;DHT22;114;48.260;10.988;2023-04-03T16:35:38;5.90;1.00
262;DHT22;114;48.260;10.988;2023-04-03T16:38:05;5.80;1.00
262;DHT22;114;48.260;10.988;2023-04-03T16:40:31;5.80;1.00
262;DHT22;114;48.260;10.988;2023-04-03T16:43:00;5.80;1.00
262;DHT22;114;48.260;10.988;2023-04-03T16:45:26;5.90;1.00
262;DHT22;114;48.260;10.988;2023-04-03T16:47:52;5.80;1.00
262;DHT22;114;48.260;10.988;2023-04-03T16:50:18;5.60;1.00
262;DHT22;114;48.260;10.988;2023-04-03T16:52:45;5.60;1.00
262;DHT22;114;48.260;10.988;2023-04-03T16:55:11;5.50;1.00
262;DHT22;114;48.260;10.988;2023-04-03T16:57:37;5.40;1.00
262;DHT22;114;48.260;10.988;2023-04-03T17:00:04;5.30;1.00
262;DHT22;114;48.260;10.988;2023-04-03T17:02:31;5.20;1.00
262;DHT22;114;48.260;10.988;2023-04-03T17:04:56;5.20;1.00
262;DHT22;114;48.260;10.988;2023-04-03T17:07:24;5.10;1.00
262;DHT22;114;48.260;10.988;2023-04-03T17:09:50;5.10;1.00
262;DHT22;114;48.260;10.988;2023-04-03T17:12:17;5.00;1.00
262;DHT22;114;48.260;10.988;2023-04-03T17:14:43;4.90;1.00
262;DHT22;114;48.260;10.988;2023-04-03T17:17:09;4.70;1.00
262;DHT22;114;48.260;10.988;2023-04-03T17:19:42;4.60;1.00
262;DHT22;114;48.260;10.988;2023-04-03T17:22:08;4.50;1.00
262;DHT22;114;48.260;10.988;2023-04-03T17:24:35;4.40;1.00
262;DHT22;114;48.260;10.988;2023-04-03T17:27:02;4.20;1.00
262;DHT22;114;48.260;10.988;2023-04-03T17:29:27;4.10;1.00
262;DHT22;114;48.260;10.988;2023-04-03T17:31:54;3.90;1.00
262;DHT22;114;48.260;10.988;2023-04-03T17:34:20;3.80;1.00
262;DHT22;114;48.260;10.988;2023-04-03T17:36:46;3.70;1.00
262;DHT22;114;48.260;10.988;2023-04-03T17:39:12;3.60;1.00
262;DHT22;114;48.260;10.988;2023-04-03T17:41:38;3.40;1.00
262;DHT22;114;48.260;10.988;2023-04-03T17:44:04;3.30;1.00
262;DHT22;114;48.260;10.988;2023-04-03T17:46:30;3.20;1.00
262;DHT22;114;48.260;10.988;2023-04-03T17:48:57;3.10;1.00
262;DHT22;114;48.260;10.988;2023-04-03T17:51:24;3.10;1.00
262;DHT22;114;48.260;10.988;2023-04-03T17:53:49;3.00;1.00
262;DHT22;114;48.260;10.988;2023-04-03T17:56:18;2.90;1.00
262;DHT22;114;48.260;10.988;2023-04-03T17:58:44;2.90;1.00
262;DHT22;114;48.260;10.988;2023-04-03T18:01:20;2.80;1.00
262;DHT22;114;48.260;10.988;2023-04-03T18:03:47;2.70;1.00
262;DHT22;114;48.260;10.988;2023-04-03T18:06:16;2.70;1.00
262;DHT22;114;48.260;10.988;2023-04-03T18:08:48;2.60;1.00
262;DHT22;114;48.260;10.988;2023-04-03T18:11:15;2.50;1.00
262;DHT22;114;48.260;10.988;2023-04-03T18:13:43;2.40;1.00
262;DHT22;114;48.260;10.988;2023-04-03T18:16:10;2.30;1.00
262;DHT22;114;48.260;10.988;2023-04-03T18:18:37;2.30;1.00
262;DHT22;114;48.260;10.988;2023-04-03T18:21:03;2.20;1.00
262;DHT22;114;48.260;10.988;2023-04-03T18:23:32;2.10;1.00
262;DHT22;114;48.260;10.988;2023-04-03T18:25:59;2.00;1.00
262;DHT22;114;48.260;10.988;2023-04-03T18:28:27;2.10;1.00
262;DHT22;114;48.260;10.988;2023-04-03T18:30:53;2.10;1.00
262;DHT22;114;48.260;10.988;2023-04-03T18:33:19;2.10;1.00
262;DHT22;114;48.260;10.988;2023-04-03T18:35:45;2.10;1.00
262;DHT22;114;48.260;10.988;2023-04-03T18:38:11;2.10;1.00
262;DHT22;114;48.260;10.988;2023-04-03T18:40:37;2.10;1.00
262;DHT22;114;48.260;10.988;2023-04-03T18:43:03;2.20;1.00
262;DHT22;114;48.260;10.988;2023-04-03T18:45:29;2.10;1.00
262;DHT22;114;48.260;10.988;2023-04-03T18:47:55;2.10;1.00
262;DHT22;114;48.260;10.988;2023-04-03T18:50:21;2.00;1.00
262;DHT22;114;48.260;10.988;2023-04-03T18:52:47;2.00;1.00
262;DHT22;114;48.260;10.988;2023-04-03T18:55:16;1.90;1.00
262;DHT22;114;48.260;10.988;2023-04-03T18:57:44;1.90;1.00